sensor_id;sensor_type;location;lat;lon;timestamp;P1;durP1;ratioP1;P2;durP2;ratioP2
71696;SDS011;68167;59.120;37.898;2024-02-28T00:02:01;17.50;;;8.33;;
71696;SDS011;68167;59.120;37.898;2024-02-28T00:04:28;16.63;;;8.27;;
71696;SDS011;68167;59.120;37.898;2024-02-28T00:06:54;17.10;;;8.00;;
71696;SDS011;68167;59.120;37.898;2024-02-28T00:09:20;13.70;;;7.63;;
71696;SDS011;68167;59.120;37.898;2024-02-28T00:11:47;14.47;;;7.10;;
71696;SDS011;68167;59.120;37.898;2024-02-28T00:14:13;16.80;;;7.70;;
71696;SDS011;68167;59.120;37.898;2024-02-28T00:16:43;17.03;;;8.40;;
71696;SDS011;68167;59.120;37.898;2024-02-28T00:19:10;12.93;;;7.37;;
71696;SDS011;68167;59.120;37.898;2024-02-28T00:21:38;17.87;;;8.07;;
71696;SDS011;68167;59.120;37.898;2024-02-28T00:24:06;16.37;;;8.00;;
71696;SDS011;68167;59.120;37.898;2024-02-28T00:26:32;18.13;;;7.40;;
71696;SDS011;68167;59.120;37.898;2024-02-28T00:28:58;16.43;;;7.67;;
71696;SDS011;68167;59.120;37.898;2024-02-28T00:31:25;21.60;;;7.70;;
71696;SDS011;68167;59.120;37.898;2024-02-28T00:33:52;16.53;;;8.00;;
71696;SDS011;68167;59.120;37.898;2024-02-28T00:36:18;14.60;;;7.33;;
71696;SDS011;68167;59.120;37.898;2024-02-28T00:38:44;15.57;;;7.30;;
71696;SDS011;68167;59.120;37.898;2024-02-28T00:41:10;13.33;;;7.20;;
71696;SDS011;68167;59.120;37.898;2024-02-28T00:43:37;15.87;;;7.40;;
71696;SDS011;68167;59.120;37.898;2024-02-28T00:46:03;14.13;;;7.33;;
71696;SDS011;68167;59.120;37.898;2024-02-28T00:48:30;13.57;;;7.37;;
71696;SDS011;68167;59.120;37.898;2024-02-28T00:50:56;20.00;;;7.20;;
71696;SDS011;68167;59.120;37.898;2024-02-28T00:53:22;12.97;;;6.70;;
71696;SDS011;68167;59.120;37.898;2024-02-28T00:55:48;17.60;;;7.27;;
71696;SDS011;68167;59.120;37.898;2024-02-28T00:58:17;10.90;;;6.47;;
71696;SDS011;68167;59.120;37.898;2024-02-28T01:00:43;13.00;;;6.73;;
71696;SDS011;68167;59.120;37.898;2024-02-28T01:03:09;17.20;;;7.17;;
71696;SDS011;68167;59.120;37.898;2024-02-28T01:05:39;15.30;;;7.27;;
71696;SDS011;68167;59.120;37.898;2024-02-28T01:08:05;14.37;;;6.83;;
71696;SDS011;68167;59.120;37.898;2024-02-28T01:10:33;13.23;;;6.57;;
71696;SDS011;68167;59.120;37.898;2024-02-28T01:13:00;12.43;;;6.67;;
71696;SDS011;68167;59.120;37.898;2024-02-28T01:15:26;14.97;;;6.70;;
71696;SDS011;68167;59.120;37.898;2024-02-28T01:17:52;16.13;;;6.90;;
71696;SDS011;68167;59.120;37.898;2024-02-28T01:20:19;14.57;;;6.37;;
71696;SDS011;68167;59.120;37.898;2024-02-28T01:22:45;16.20;;;6.87;;
71696;SDS011;68167;59.120;37.898;2024-02-28T01:25:11;15.73;;;6.90;;
71696;SDS011;68167;59.120;37.898;2024-02-28T01:27:38;12.50;;;6.00;;
71696;SDS011;68167;59.120;37.898;2024-02-28T01:30:04;14.03;;;6.30;;
71696;SDS011;68167;59.120;37.898;2024-02-28T01:32:31;11.80;;;6.43;;
71696;SDS011;68167;59.120;37.898;2024-02-28T01:34:58;11.97;;;6.43;;
71696;SDS011;68167;59.120;37.898;2024-02-28T01:37:24;11.10;;;6.30;;
71696;SDS011;68167;59.120;37.898;2024-02-28T01:39:50;11.00;;;6.43;;
71696;SDS011;68167;59.120;37.898;2024-02-28T01:42:17;10.47;;;5.63;;
71696;SDS011;68167;59.120;37.898;2024-02-28T01:44:44;10.50;;;6.67;;
71696;SDS011;68167;59.120;37.898;2024-02-28T01:47:13;14.23;;;6.80;;
71696;SDS011;68167;59.120;37.898;2024-02-28T01:49:39;12.13;;;6.53;;
71696;SDS011;68167;59.120;37.898;2024-02-28T01:52:07;16.93;;;6.87;;
71696;SDS011;68167;59.120;37.898;2024-02-28T01:54:34;14.70;;;6.37;;
71696;SDS011;68167;59.120;37.898;2024-02-28T01:57:01;16.60;;;7.93;;
71696;SDS011;68167;59.120;37.898;2024-02-28T01:59:28;15.50;;;7.07;;
71696;SDS011;68167;59.120;37.898;2024-02-28T02:01:56;9.53;;;5.87;;
71696;SDS011;68167;59.120;37.898;2024-02-28T02:04:22;11.10;;;6.13;;
71696;SDS011;68167;59.120;37.898;2024-02-28T02:06:48;10.23;;;6.03;;
71696;SDS011;68167;59.120;37.898;2024-02-28T02:09:16;11.53;;;5.80;;
71696;SDS011;68167;59.120;37.898;2024-02-28T02:11:42;12.80;;;6.07;;
71696;SDS011;68167;59.120;37.898;2024-02-28T02:14:10;11.83;;;5.60;;
71696;SDS011;68167;59.120;37.898;2024-02-28T02:16:37;19.23;;;6.90;;
71696;SDS011;68167;59.120;37.898;2024-02-28T02:19:03;13.90;;;6.07;;
71696;SDS011;68167;59.120;37.898;2024-02-28T02:21:30;13.57;;;6.30;;
71696;SDS011;68167;59.120;37.898;2024-02-28T02:24:00;13.07;;;5.93;;
71696;SDS011;68167;59.120;37.898;2024-02-28T02:26:26;15.57;;;5.47;;
71696;SDS011;68167;59.120;37.898;2024-02-28T02:28:52;14.97;;;6.73;;
71696;SDS011;68167;59.120;37.898;2024-02-28T02:31:19;13.27;;;5.90;;
71696;SDS011;68167;59.120;37.898;2024-02-28T02:33:45;14.23;;;6.77;;
71696;SDS011;68167;59.120;37.898;2024-02-28T02:36:11;10.83;;;6.03;;
71696;SDS011;68167;59.120;37.898;2024-02-28T02:38:37;12.57;;;5.93;;
71696;SDS011;68167;59.120;37.898;2024-02-28T02:41:04;12.53;;;5.80;;
71696;SDS011;68167;59.120;37.898;2024-02-28T02:43:30;14.30;;;6.23;;
71696;SDS011;68167;59.120;37.898;2024-02-28T02:45:56;12.87;;;6.53;;
71696;SDS011;68167;59.120;37.898;2024-02-28T02:48:22;11.87;;;6.60;;
71696;SDS011;68167;59.120;37.898;2024-02-28T02:50:49;13.70;;;6.80;;
71696;SDS011;68167;59.120;37.898;2024-02-28T02:53:15;11.80;;;6.10;;
71696;SDS011;68167;59.120;37.898;2024-02-28T02:55:41;14.77;;;5.93;;
71696;SDS011;68167;59.120;37.898;2024-02-28T02:58:07;14.47;;;7.10;;
71696;SDS011;68167;59.120;37.898;2024-02-28T03:00:34;12.07;;;6.27;;
71696;SDS011;68167;59.120;37.898;2024-02-28T03:03:00;16.20;;;6.50;;
71696;SDS011;68167;59.120;37.898;2024-02-28T03:05:26;13.40;;;6.03;;
71696;SDS011;68167;59.120;37.898;2024-02-28T03:07:53;14.60;;;6.57;;
71696;SDS011;68167;59.120;37.898;2024-02-28T03:10:19;14.83;;;5.73;;
71696;SDS011;68167;59.120;37.898;2024-02-28T03:12:45;11.07;;;6.07;;
71696;SDS011;68167;59.120;37.898;2024-02-28T03:15:12;15.70;;;6.47;;
71696;SDS011;68167;59.120;37.898;2024-02-28T03:17:38;14.17;;;6.77;;
71696;SDS011;68167;59.120;37.898;2024-02-28T03:20:04;11.27;;;6.37;;
71696;SDS011;68167;59.120;37.898;2024-02-28T03:22:32;13.63;;;6.63;;
71696;SDS011;68167;59.120;37.898;2024-02-28T03:24:59;13.93;;;5.80;;
71696;SDS011;68167;59.120;37.898;2024-02-28T03:27:25;12.47;;;6.33;;
71696;SDS011;68167;59.120;37.898;2024-02-28T03:29:51;17.07;;;6.30;;
71696;SDS011;68167;59.120;37.898;2024-02-28T03:32:18;13.03;;;6.27;;
71696;SDS011;68167;59.120;37.898;2024-02-28T03:34:44;18.07;;;6.07;;
71696;SDS011;68167;59.120;37.898;2024-02-28T03:37:10;11.13;;;6.27;;
71696;SDS011;68167;59.120;37.898;2024-02-28T03:39:36;11.30;;;5.90;;
71696;SDS011;68167;59.120;37.898;2024-02-28T03:42:03;12.23;;;5.73;;
71696;SDS011;68167;59.120;37.898;2024-02-28T03:44:29;11.53;;;5.60;;
71696;SDS011;68167;59.120;37.898;2024-02-28T03:46:55;14.10;;;6.00;;
71696;SDS011;68167;59.120;37.898;2024-02-28T03:49:21;10.27;;;5.47;;
71696;SDS011;68167;59.120;37.898;2024-02-28T03:51:48;10.87;;;6.07;;
71696;SDS011;68167;59.120;37.898;2024-02-28T03:54:14;11.57;;;5.37;;
71696;SDS011;68167;59.120;37.898;2024-02-28T03:56:41;14.00;;;6.37;;
71696;SDS011;68167;59.120;37.898;2024-02-28T03:59:07;10.87;;;5.27;;
71696;SDS011;68167;59.120;37.898;2024-02-28T04:01:33;14.57;;;6.17;;
71696;SDS011;68167;59.120;37.898;2024-02-28T04:04:00;13.97;;;6.13;;
71696;SDS011;68167;59.120;37.898;2024-02-28T04:06:26;12.53;;;5.57;;
71696;SDS011;68167;59.120;37.898;2024-02-28T04:08:52;11.13;;;5.23;;
71696;SDS011;68167;59.120;37.898;2024-02-28T04:11:19;14.97;;;6.83;;
71696;SDS011;68167;59.120;37.898;2024-02-28T04:13:46;10.07;;;5.20;;
71696;SDS011;68167;59.120;37.898;2024-02-28T04:16:12;12.40;;;5.50;;
71696;SDS011;68167;59.120;37.898;2024-02-28T04:18:38;14.07;;;5.60;;
71696;SDS011;68167;59.120;37.898;2024-02-28T04:21:05;12.20;;;6.43;;
71696;SDS011;68167;59.120;37.898;2024-02-28T04:23:31;11.80;;;5.37;;
71696;SDS011;68167;59.120;37.898;2024-02-28T04:25:58;9.33;;;5.00;;
71696;SDS011;68167;59.120;37.898;2024-02-28T04:28:24;13.90;;;5.50;;
71696;SDS011;68167;59.120;37.898;2024-02-28T04:30:50;12.87;;;5.40;;
71696;SDS011;68167;59.120;37.898;2024-02-28T04:33:17;11.50;;;5.97;;
71696;SDS011;68167;59.120;37.898;2024-02-28T04:35:43;12.50;;;5.27;;
71696;SDS011;68167;59.120;37.898;2024-02-28T04:38:09;12.27;;;5.50;;
71696;SDS011;68167;59.120;37.898;2024-02-28T04:40:35;15.03;;;5.80;;
71696;SDS011;68167;59.120;37.898;2024-02-28T04:43:02;13.80;;;6.63;;
71696;SDS011;68167;59.120;37.898;2024-02-28T04:45:28;11.60;;;5.80;;
71696;SDS011;68167;59.120;37.898;2024-02-28T04:47:55;13.67;;;6.03;;
71696;SDS011;68167;59.120;37.898;2024-02-28T04:50:22;16.07;;;6.10;;
71696;SDS011;68167;59.120;37.898;2024-02-28T04:52:49;13.70;;;6.10;;
71696;SDS011;68167;59.120;37.898;2024-02-28T04:55:15;12.30;;;6.37;;
71696;SDS011;68167;59.120;37.898;2024-02-28T04:57:42;10.83;;;5.63;;
71696;SDS011;68167;59.120;37.898;2024-02-28T05:00:08;17.67;;;5.97;;
71696;SDS011;68167;59.120;37.898;2024-02-28T05:02:35;12.73;;;6.03;;
71696;SDS011;68167;59.120;37.898;2024-02-28T05:05:01;11.90;;;5.97;;
71696;SDS011;68167;59.120;37.898;2024-02-28T05:07:29;12.90;;;5.67;;
71696;SDS011;68167;59.120;37.898;2024-02-28T05:09:55;15.37;;;5.67;;
71696;SDS011;68167;59.120;37.898;2024-02-28T05:12:21;10.70;;;5.50;;
71696;SDS011;68167;59.120;37.898;2024-02-28T05:14:48;11.40;;;5.90;;
71696;SDS011;68167;59.120;37.898;2024-02-28T05:17:14;12.93;;;5.80;;
71696;SDS011;68167;59.120;37.898;2024-02-28T05:19:40;15.20;;;5.90;;
71696;SDS011;68167;59.120;37.898;2024-02-28T05:22:06;11.87;;;5.57;;
71696;SDS011;68167;59.120;37.898;2024-02-28T05:24:33;13.23;;;5.83;;
71696;SDS011;68167;59.120;37.898;2024-02-28T05:26:59;12.47;;;5.17;;
71696;SDS011;68167;59.120;37.898;2024-02-28T05:29:25;10.37;;;5.57;;
71696;SDS011;68167;59.120;37.898;2024-02-28T05:31:52;10.03;;;5.23;;
71696;SDS011;68167;59.120;37.898;2024-02-28T05:34:18;15.20;;;6.13;;
71696;SDS011;68167;59.120;37.898;2024-02-28T05:36:44;13.17;;;5.83;;
71696;SDS011;68167;59.120;37.898;2024-02-28T05:39:10;10.50;;;4.93;;
71696;SDS011;68167;59.120;37.898;2024-02-28T05:41:36;12.50;;;5.53;;
71696;SDS011;68167;59.120;37.898;2024-02-28T05:44:03;7.97;;;4.77;;
71696;SDS011;68167;59.120;37.898;2024-02-28T05:46:29;10.30;;;4.60;;
71696;SDS011;68167;59.120;37.898;2024-02-28T05:48:56;12.87;;;5.47;;
71696;SDS011;68167;59.120;37.898;2024-02-28T05:51:22;8.73;;;4.63;;
71696;SDS011;68167;59.120;37.898;2024-02-28T05:53:49;13.10;;;5.03;;
71696;SDS011;68167;59.120;37.898;2024-02-28T05:56:15;10.70;;;5.13;;
71696;SDS011;68167;59.120;37.898;2024-02-28T05:58:43;9.33;;;4.37;;
71696;SDS011;68167;59.120;37.898;2024-02-28T06:01:10;8.90;;;5.67;;
71696;SDS011;68167;59.120;37.898;2024-02-28T06:03:37;6.97;;;4.00;;
71696;SDS011;68167;59.120;37.898;2024-02-28T06:06:04;9.63;;;4.40;;
71696;SDS011;68167;59.120;37.898;2024-02-28T06:08:34;8.67;;;5.00;;
71696;SDS011;68167;59.120;37.898;2024-02-28T06:11:05;11.73;;;4.90;;
71696;SDS011;68167;59.120;37.898;2024-02-28T06:13:31;11.23;;;5.73;;
71696;SDS011;68167;59.120;37.898;2024-02-28T06:15:59;12.77;;;4.73;;
71696;SDS011;68167;59.120;37.898;2024-02-28T06:18:25;11.60;;;5.23;;
71696;SDS011;68167;59.120;37.898;2024-02-28T06:20:56;8.43;;;4.30;;
71696;SDS011;68167;59.120;37.898;2024-02-28T06:23:22;11.00;;;4.67;;
71696;SDS011;68167;59.120;37.898;2024-02-28T06:25:49;8.77;;;4.57;;
71696;SDS011;68167;59.120;37.898;2024-02-28T06:28:16;10.97;;;5.47;;
71696;SDS011;68167;59.120;37.898;2024-02-28T06:30:43;7.73;;;4.13;;
71696;SDS011;68167;59.120;37.898;2024-02-28T06:33:13;7.27;;;4.60;;
71696;SDS011;68167;59.120;37.898;2024-02-28T06:35:40;9.30;;;4.60;;
71696;SDS011;68167;59.120;37.898;2024-02-28T06:38:07;12.00;;;4.37;;
71696;SDS011;68167;59.120;37.898;2024-02-28T06:40:33;10.70;;;4.77;;
71696;SDS011;68167;59.120;37.898;2024-02-28T06:43:00;13.70;;;5.07;;
71696;SDS011;68167;59.120;37.898;2024-02-28T06:45:28;12.73;;;4.77;;
71696;SDS011;68167;59.120;37.898;2024-02-28T06:47:54;9.37;;;4.83;;
71696;SDS011;68167;59.120;37.898;2024-02-28T06:50:21;8.00;;;4.03;;
71696;SDS011;68167;59.120;37.898;2024-02-28T06:52:47;10.20;;;4.77;;
71696;SDS011;68167;59.120;37.898;2024-02-28T06:55:13;6.80;;;4.23;;
71696;SDS011;68167;59.120;37.898;2024-02-28T06:57:40;13.07;;;5.30;;
71696;SDS011;68167;59.120;37.898;2024-02-28T07:00:08;10.43;;;4.97;;
71696;SDS011;68167;59.120;37.898;2024-02-28T07:02:36;9.93;;;4.73;;
71696;SDS011;68167;59.120;37.898;2024-02-28T07:05:02;7.83;;;4.63;;
71696;SDS011;68167;59.120;37.898;2024-02-28T07:07:31;8.03;;;4.00;;
71696;SDS011;68167;59.120;37.898;2024-02-28T07:10:03;11.07;;;4.23;;
71696;SDS011;68167;59.120;37.898;2024-02-28T07:12:32;8.17;;;4.30;;
71696;SDS011;68167;59.120;37.898;2024-02-28T07:14:59;8.93;;;4.20;;
71696;SDS011;68167;59.120;37.898;2024-02-28T07:17:25;13.13;;;4.30;;
71696;SDS011;68167;59.120;37.898;2024-02-28T07:19:52;8.17;;;4.90;;
71696;SDS011;68167;59.120;37.898;2024-02-28T07:22:18;7.83;;;4.60;;
71696;SDS011;68167;59.120;37.898;2024-02-28T07:24:44;11.40;;;4.03;;
71696;SDS011;68167;59.120;37.898;2024-02-28T07:27:11;12.30;;;4.83;;
71696;SDS011;68167;59.120;37.898;2024-02-28T07:29:37;8.37;;;4.17;;
71696;SDS011;68167;59.120;37.898;2024-02-28T07:32:04;11.77;;;4.50;;
71696;SDS011;68167;59.120;37.898;2024-02-28T07:34:30;9.90;;;5.03;;
71696;SDS011;68167;59.120;37.898;2024-02-28T07:37:01;12.20;;;4.57;;
71696;SDS011;68167;59.120;37.898;2024-02-28T07:39:28;9.77;;;5.47;;
71696;SDS011;68167;59.120;37.898;2024-02-28T07:41:54;11.87;;;5.53;;
71696;SDS011;68167;59.120;37.898;2024-02-28T07:44:20;9.87;;;4.93;;
71696;SDS011;68167;59.120;37.898;2024-02-28T07:46:46;9.37;;;5.10;;
71696;SDS011;68167;59.120;37.898;2024-02-28T07:49:13;10.63;;;4.83;;
71696;SDS011;68167;59.120;37.898;2024-02-28T07:51:39;9.20;;;4.57;;
71696;SDS011;68167;59.120;37.898;2024-02-28T07:54:06;10.60;;;4.50;;
71696;SDS011;68167;59.120;37.898;2024-02-28T07:56:32;7.73;;;4.27;;
71696;SDS011;68167;59.120;37.898;2024-02-28T07:58:58;9.43;;;4.47;;
71696;SDS011;68167;59.120;37.898;2024-02-28T08:01:25;8.93;;;4.37;;
71696;SDS011;68167;59.120;37.898;2024-02-28T08:03:51;7.27;;;4.33;;
71696;SDS011;68167;59.120;37.898;2024-02-28T08:06:17;9.57;;;4.10;;
71696;SDS011;68167;59.120;37.898;2024-02-28T08:08:44;8.20;;;3.80;;
71696;SDS011;68167;59.120;37.898;2024-02-28T08:11:13;9.67;;;4.20;;
71696;SDS011;68167;59.120;37.898;2024-02-28T08:13:40;9.97;;;4.10;;
71696;SDS011;68167;59.120;37.898;2024-02-28T08:16:06;8.83;;;4.73;;
71696;SDS011;68167;59.120;37.898;2024-02-28T08:18:35;9.63;;;4.77;;
71696;SDS011;68167;59.120;37.898;2024-02-28T08:21:01;7.83;;;4.10;;
71696;SDS011;68167;59.120;37.898;2024-02-28T08:23:32;8.37;;;4.17;;
71696;SDS011;68167;59.120;37.898;2024-02-28T08:25:58;9.07;;;4.20;;
71696;SDS011;68167;59.120;37.898;2024-02-28T08:28:24;9.63;;;4.37;;
71696;SDS011;68167;59.120;37.898;2024-02-28T08:30:51;11.90;;;4.73;;
71696;SDS011;68167;59.120;37.898;2024-02-28T08:33:17;10.20;;;4.40;;
71696;SDS011;68167;59.120;37.898;2024-02-28T08:35:43;9.33;;;4.27;;
71696;SDS011;68167;59.120;37.898;2024-02-28T08:38:10;12.10;;;5.33;;
71696;SDS011;68167;59.120;37.898;2024-02-28T08:40:36;10.37;;;4.90;;
71696;SDS011;68167;59.120;37.898;2024-02-28T08:43:02;9.67;;;5.60;;
71696;SDS011;68167;59.120;37.898;2024-02-28T08:45:29;9.43;;;5.50;;
71696;SDS011;68167;59.120;37.898;2024-02-28T08:47:55;11.73;;;4.67;;
71696;SDS011;68167;59.120;37.898;2024-02-28T08:50:23;12.03;;;4.43;;
71696;SDS011;68167;59.120;37.898;2024-02-28T08:52:49;9.10;;;4.40;;
71696;SDS011;68167;59.120;37.898;2024-02-28T08:55:15;10.73;;;4.87;;
71696;SDS011;68167;59.120;37.898;2024-02-28T08:57:44;10.97;;;5.00;;
71696;SDS011;68167;59.120;37.898;2024-02-28T09:00:11;16.70;;;5.70;;
71696;SDS011;68167;59.120;37.898;2024-02-28T09:02:38;8.53;;;5.17;;
71696;SDS011;68167;59.120;37.898;2024-02-28T09:05:05;11.33;;;5.03;;
71696;SDS011;68167;59.120;37.898;2024-02-28T09:07:32;11.07;;;5.40;;
71696;SDS011;68167;59.120;37.898;2024-02-28T09:10:06;10.93;;;4.70;;
71696;SDS011;68167;59.120;37.898;2024-02-28T09:12:33;12.70;;;5.63;;
71696;SDS011;68167;59.120;37.898;2024-02-28T09:14:59;10.70;;;4.33;;
71696;SDS011;68167;59.120;37.898;2024-02-28T09:17:26;11.97;;;5.07;;
71696;SDS011;68167;59.120;37.898;2024-02-28T09:19:52;11.17;;;4.83;;
71696;SDS011;68167;59.120;37.898;2024-02-28T09:22:20;13.00;;;5.70;;
71696;SDS011;68167;59.120;37.898;2024-02-28T09:24:47;13.40;;;5.93;;
71696;SDS011;68167;59.120;37.898;2024-02-28T09:27:14;11.20;;;5.23;;
71696;SDS011;68167;59.120;37.898;2024-02-28T09:29:40;8.97;;;4.57;;
71696;SDS011;68167;59.120;37.898;2024-02-28T09:32:06;10.00;;;5.00;;
71696;SDS011;68167;59.120;37.898;2024-02-28T09:34:33;13.90;;;5.53;;
71696;SDS011;68167;59.120;37.898;2024-02-28T09:36:59;10.93;;;4.90;;
71696;SDS011;68167;59.120;37.898;2024-02-28T09:39:25;10.93;;;4.73;;
71696;SDS011;68167;59.120;37.898;2024-02-28T09:41:52;15.70;;;5.00;;
71696;SDS011;68167;59.120;37.898;2024-02-28T09:44:18;11.33;;;5.00;;
71696;SDS011;68167;59.120;37.898;2024-02-28T09:46:47;10.90;;;4.77;;
71696;SDS011;68167;59.120;37.898;2024-02-28T09:49:17;10.73;;;4.70;;
71696;SDS011;68167;59.120;37.898;2024-02-28T09:51:44;13.90;;;5.07;;
71696;SDS011;68167;59.120;37.898;2024-02-28T09:54:15;10.70;;;4.60;;
71696;SDS011;68167;59.120;37.898;2024-02-28T09:56:41;7.73;;;4.57;;
71696;SDS011;68167;59.120;37.898;2024-02-28T09:59:08;10.00;;;4.50;;
71696;SDS011;68167;59.120;37.898;2024-02-28T10:01:37;10.57;;;5.03;;
71696;SDS011;68167;59.120;37.898;2024-02-28T10:04:09;9.90;;;4.40;;
71696;SDS011;68167;59.120;37.898;2024-02-28T10:06:41;11.80;;;4.50;;
71696;SDS011;68167;59.120;37.898;2024-02-28T10:09:08;10.33;;;4.93;;
71696;SDS011;68167;59.120;37.898;2024-02-28T10:11:36;11.93;;;4.83;;
71696;SDS011;68167;59.120;37.898;2024-02-28T10:14:03;12.70;;;5.63;;
71696;SDS011;68167;59.120;37.898;2024-02-28T10:16:29;12.97;;;4.93;;
71696;SDS011;68167;59.120;37.898;2024-02-28T10:18:56;9.97;;;4.23;;
71696;SDS011;68167;59.120;37.898;2024-02-28T10:21:22;7.20;;;4.07;;
71696;SDS011;68167;59.120;37.898;2024-02-28T10:23:50;10.97;;;4.67;;
71696;SDS011;68167;59.120;37.898;2024-02-28T10:26:16;11.53;;;4.37;;
71696;SDS011;68167;59.120;37.898;2024-02-28T10:28:42;13.03;;;4.53;;
71696;SDS011;68167;59.120;37.898;2024-02-28T10:31:11;9.97;;;4.90;;
71696;SDS011;68167;59.120;37.898;2024-02-28T10:33:37;9.83;;;4.67;;
71696;SDS011;68167;59.120;37.898;2024-02-28T10:36:04;8.10;;;4.47;;
71696;SDS011;68167;59.120;37.898;2024-02-28T10:38:31;9.07;;;4.73;;
71696;SDS011;68167;59.120;37.898;2024-02-28T10:41:05;8.80;;;4.10;;
71696;SDS011;68167;59.120;37.898;2024-02-28T10:43:35;9.80;;;3.67;;
71696;SDS011;68167;59.120;37.898;2024-02-28T10:46:01;11.27;;;3.97;;
71696;SDS011;68167;59.120;37.898;2024-02-28T10:48:27;9.37;;;4.27;;
71696;SDS011;68167;59.120;37.898;2024-02-28T10:50:54;11.23;;;4.23;;
71696;SDS011;68167;59.120;37.898;2024-02-28T10:53:21;6.70;;;4.30;;
71696;SDS011;68167;59.120;37.898;2024-02-28T10:55:53;9.57;;;4.43;;
71696;SDS011;68167;59.120;37.898;2024-02-28T10:58:25;9.83;;;4.00;;
71696;SDS011;68167;59.120;37.898;2024-02-28T11:01:00;8.10;;;4.80;;
71696;SDS011;68167;59.120;37.898;2024-02-28T11:03:26;13.37;;;5.10;;
71696;SDS011;68167;59.120;37.898;2024-02-28T11:05:53;8.37;;;4.40;;
71696;SDS011;68167;59.120;37.898;2024-02-28T11:08:26;10.13;;;4.67;;
71696;SDS011;68167;59.120;37.898;2024-02-28T11:11:01;12.33;;;4.57;;
71696;SDS011;68167;59.120;37.898;2024-02-28T11:13:30;10.60;;;4.50;;
71696;SDS011;68167;59.120;37.898;2024-02-28T11:16:07;10.37;;;4.50;;
71696;SDS011;68167;59.120;37.898;2024-02-28T11:18:34;8.90;;;4.23;;
71696;SDS011;68167;59.120;37.898;2024-02-28T11:21:01;9.23;;;4.37;;
71696;SDS011;68167;59.120;37.898;2024-02-28T11:23:38;8.67;;;3.90;;
71696;SDS011;68167;59.120;37.898;2024-02-28T11:26:04;11.00;;;4.13;;
71696;SDS011;68167;59.120;37.898;2024-02-28T11:28:30;10.27;;;5.13;;
71696;SDS011;68167;59.120;37.898;2024-02-28T11:30:57;10.87;;;4.83;;
71696;SDS011;68167;59.120;37.898;2024-02-28T11:33:23;11.27;;;4.77;;
71696;SDS011;68167;59.120;37.898;2024-02-28T11:35:56;15.93;;;5.80;;
71696;SDS011;68167;59.120;37.898;2024-02-28T11:38:26;12.77;;;5.43;;
71696;SDS011;68167;59.120;37.898;2024-02-28T11:40:53;13.60;;;5.67;;
71696;SDS011;68167;59.120;37.898;2024-02-28T11:43:21;10.73;;;5.90;;
71696;SDS011;68167;59.120;37.898;2024-02-28T11:45:47;12.77;;;5.40;;
71696;SDS011;68167;59.120;37.898;2024-02-28T11:48:14;11.60;;;5.30;;
71696;SDS011;68167;59.120;37.898;2024-02-28T11:50:41;16.70;;;5.07;;
71696;SDS011;68167;59.120;37.898;2024-02-28T11:53:08;9.63;;;5.40;;
71696;SDS011;68167;59.120;37.898;2024-02-28T11:55:35;15.83;;;5.43;;
71696;SDS011;68167;59.120;37.898;2024-02-28T11:58:07;15.20;;;5.33;;
71696;SDS011;68167;59.120;37.898;2024-02-28T12:00:34;12.97;;;5.07;;
71696;SDS011;68167;59.120;37.898;2024-02-28T12:03:13;14.90;;;7.20;;
71696;SDS011;68167;59.120;37.898;2024-02-28T12:05:42;9.03;;;4.83;;
71696;SDS011;68167;59.120;37.898;2024-02-28T12:08:15;15.97;;;5.10;;
71696;SDS011;68167;59.120;37.898;2024-02-28T12:10:43;12.93;;;4.90;;
71696;SDS011;68167;59.120;37.898;2024-02-28T12:13:10;11.33;;;4.80;;
71696;SDS011;68167;59.120;37.898;2024-02-28T12:15:38;6.50;;;4.27;;
71696;SDS011;68167;59.120;37.898;2024-02-28T12:18:10;9.80;;;4.63;;
71696;SDS011;68167;59.120;37.898;2024-02-28T12:20:37;9.57;;;4.70;;
71696;SDS011;68167;59.120;37.898;2024-02-28T12:23:04;12.97;;;4.60;;
71696;SDS011;68167;59.120;37.898;2024-02-28T12:25:31;14.70;;;4.40;;
71696;SDS011;68167;59.120;37.898;2024-02-28T12:27:58;11.87;;;5.13;;
71696;SDS011;68167;59.120;37.898;2024-02-28T12:30:24;16.43;;;5.57;;
71696;SDS011;68167;59.120;37.898;2024-02-28T12:32:50;14.53;;;5.27;;
71696;SDS011;68167;59.120;37.898;2024-02-28T12:35:16;9.23;;;4.20;;
71696;SDS011;68167;59.120;37.898;2024-02-28T12:37:43;12.63;;;4.60;;
71696;SDS011;68167;59.120;37.898;2024-02-28T12:40:11;11.40;;;5.60;;
71696;SDS011;68167;59.120;37.898;2024-02-28T12:42:39;10.10;;;4.97;;
71696;SDS011;68167;59.120;37.898;2024-02-28T12:45:06;13.33;;;5.67;;
71696;SDS011;68167;59.120;37.898;2024-02-28T12:47:32;10.70;;;5.90;;
71696;SDS011;68167;59.120;37.898;2024-02-28T12:49:58;10.53;;;4.93;;
71696;SDS011;68167;59.120;37.898;2024-02-28T12:52:25;10.60;;;5.60;;
71696;SDS011;68167;59.120;37.898;2024-02-28T12:54:55;9.70;;;5.33;;
71696;SDS011;68167;59.120;37.898;2024-02-28T12:57:21;10.53;;;5.10;;
71696;SDS011;68167;59.120;37.898;2024-02-28T12:59:47;11.23;;;5.67;;
71696;SDS011;68167;59.120;37.898;2024-02-28T13:02:14;13.80;;;5.07;;
71696;SDS011;68167;59.120;37.898;2024-02-28T13:04:41;13.07;;;6.30;;
71696;SDS011;68167;59.120;37.898;2024-02-28T13:07:07;8.23;;;5.17;;
71696;SDS011;68167;59.120;37.898;2024-02-28T13:09:34;15.27;;;5.40;;
71696;SDS011;68167;59.120;37.898;2024-02-28T13:12:00;10.63;;;5.17;;
71696;SDS011;68167;59.120;37.898;2024-02-28T13:14:27;12.03;;;5.00;;
71696;SDS011;68167;59.120;37.898;2024-02-28T13:16:54;13.93;;;5.30;;
71696;SDS011;68167;59.120;37.898;2024-02-28T13:19:20;9.40;;;4.63;;
71696;SDS011;68167;59.120;37.898;2024-02-28T13:21:46;7.33;;;4.43;;
71696;SDS011;68167;59.120;37.898;2024-02-28T13:24:13;11.20;;;4.37;;
71696;SDS011;68167;59.120;37.898;2024-02-28T13:26:40;16.17;;;5.17;;
71696;SDS011;68167;59.120;37.898;2024-02-28T13:29:07;17.67;;;5.57;;
71696;SDS011;68167;59.120;37.898;2024-02-28T13:31:34;8.33;;;4.80;;
71696;SDS011;68167;59.120;37.898;2024-02-28T13:34:01;9.70;;;4.70;;
71696;SDS011;68167;59.120;37.898;2024-02-28T13:36:29;15.87;;;5.10;;
71696;SDS011;68167;59.120;37.898;2024-02-28T13:38:58;13.40;;;5.00;;
71696;SDS011;68167;59.120;37.898;2024-02-28T13:41:24;11.50;;;5.17;;
71696;SDS011;68167;59.120;37.898;2024-02-28T13:43:51;10.83;;;5.20;;
71696;SDS011;68167;59.120;37.898;2024-02-28T13:46:17;8.77;;;4.90;;
71696;SDS011;68167;59.120;37.898;2024-02-28T13:48:45;15.30;;;5.07;;
71696;SDS011;68167;59.120;37.898;2024-02-28T13:51:12;10.93;;;4.67;;
71696;SDS011;68167;59.120;37.898;2024-02-28T13:53:38;15.50;;;5.07;;
71696;SDS011;68167;59.120;37.898;2024-02-28T13:56:04;9.10;;;4.77;;
71696;SDS011;68167;59.120;37.898;2024-02-28T13:58:31;12.90;;;5.00;;
71696;SDS011;68167;59.120;37.898;2024-02-28T14:00:57;11.07;;;4.73;;
71696;SDS011;68167;59.120;37.898;2024-02-28T14:03:23;11.53;;;5.20;;
71696;SDS011;68167;59.120;37.898;2024-02-28T14:05:51;16.07;;;5.43;;
71696;SDS011;68167;59.120;37.898;2024-02-28T14:08:21;8.77;;;4.77;;
71696;SDS011;68167;59.120;37.898;2024-02-28T14:10:47;9.67;;;4.60;;
71696;SDS011;68167;59.120;37.898;2024-02-28T14:13:13;16.40;;;6.80;;
71696;SDS011;68167;59.120;37.898;2024-02-28T14:15:41;7.90;;;5.23;;
71696;SDS011;68167;59.120;37.898;2024-02-28T14:18:07;10.50;;;5.10;;
71696;SDS011;68167;59.120;37.898;2024-02-28T14:20:34;12.30;;;5.30;;
71696;SDS011;68167;59.120;37.898;2024-02-28T14:23:00;11.87;;;5.90;;